sensor_id;sensor_type;location;lat;lon;timestamp;P1;durP1;ratioP1;P2;durP2;ratioP2
20709;SDS011;10516;51.518;9.864;2022-12-13T00:01:37;39.90;;;17.73;;
20709;SDS011;10516;51.518;9.864;2022-12-13T00:04:04;37.03;;;15.98;;
20709;SDS011;10516;51.518;9.864;2022-12-13T00:06:31;31.92;;;15.15;;
20709;SDS011;10516;51.518;9.864;2022-12-13T00:08:57;40.17;;;16.67;;
20709;SDS011;10516;51.518;9.864;2022-12-13T00:11:23;31.65;;;15.48;;
20709;SDS011;10516;51.518;9.864;2022-12-13T00:13:49;33.85;;;15.50;;
20709;SDS011;10516;51.518;9.864;2022-12-13T00:16:16;28.85;;;13.82;;
20709;SDS011;10516;51.518;9.864;2022-12-13T00:18:45;32.63;;;15.43;;
20709;SDS011;10516;51.518;9.864;2022-12-13T00:21:13;36.13;;;17.27;;
20709;SDS011;10516;51.518;9.864;2022-12-13T00:23:40;29.00;;;16.50;;
20709;SDS011;10516;51.518;9.864;2022-12-13T00:26:07;26.17;;;15.40;;
20709;SDS011;10516;51.518;9.864;2022-12-13T00:28:39;29.88;;;14.85;;
20709;SDS011;10516;51.518;9.864;2022-12-13T00:31:05;27.35;;;12.57;;
20709;SDS011;10516;51.518;9.864;2022-12-13T00:33:31;30.52;;;14.85;;
20709;SDS011;10516;51.518;9.864;2022-12-13T00:35:57;26.10;;;13.70;;
20709;SDS011;10516;51.518;9.864;2022-12-13T00:38:23;23.30;;;12.63;;
20709;SDS011;10516;51.518;9.864;2022-12-13T00:40:48;24.35;;;10.90;;
20709;SDS011;10516;51.518;9.864;2022-12-13T00:43:15;20.88;;;10.32;;
20709;SDS011;10516;51.518;9.864;2022-12-13T00:45:40;22.33;;;9.95;;
20709;SDS011;10516;51.518;9.864;2022-12-13T00:48:06;22.08;;;11.27;;
20709;SDS011;10516;51.518;9.864;2022-12-13T00:50:31;24.15;;;11.75;;
20709;SDS011;10516;51.518;9.864;2022-12-13T00:52:58;20.92;;;11.07;;
20709;SDS011;10516;51.518;9.864;2022-12-13T00:55:24;24.30;;;10.10;;
20709;SDS011;10516;51.518;9.864;2022-12-13T00:57:50;19.58;;;9.88;;
20709;SDS011;10516;51.518;9.864;2022-12-13T01:00:15;23.13;;;9.63;;
20709;SDS011;10516;51.518;9.864;2022-12-13T01:02:40;21.00;;;9.32;;
20709;SDS011;10516;51.518;9.864;2022-12-13T01:05:07;17.60;;;8.63;;
20709;SDS011;10516;51.518;9.864;2022-12-13T01:07:33;21.35;;;9.82;;
20709;SDS011;10516;51.518;9.864;2022-12-13T01:09:59;18.92;;;9.50;;
20709;SDS011;10516;51.518;9.864;2022-12-13T01:12:24;22.25;;;10.25;;
20709;SDS011;10516;51.518;9.864;2022-12-13T01:14:50;25.55;;;13.13;;
20709;SDS011;10516;51.518;9.864;2022-12-13T01:17:15;26.67;;;14.32;;
20709;SDS011;10516;51.518;9.864;2022-12-13T01:19:40;27.27;;;14.38;;
20709;SDS011;10516;51.518;9.864;2022-12-13T01:22:06;24.55;;;13.75;;
20709;SDS011;10516;51.518;9.864;2022-12-13T01:24:32;28.10;;;12.80;;
20709;SDS011;10516;51.518;9.864;2022-12-13T01:26:58;29.77;;;13.23;;
20709;SDS011;10516;51.518;9.864;2022-12-13T01:29:24;29.42;;;13.80;;
20709;SDS011;10516;51.518;9.864;2022-12-13T01:31:50;31.50;;;13.75;;
20709;SDS011;10516;51.518;9.864;2022-12-13T01:34:18;33.85;;;12.88;;
20709;SDS011;10516;51.518;9.864;2022-12-13T01:36:46;35.63;;;14.63;;
20709;SDS011;10516;51.518;9.864;2022-12-13T01:39:13;37.58;;;15.38;;
20709;SDS011;10516;51.518;9.864;2022-12-13T01:41:45;31.58;;;13.18;;
20709;SDS011;10516;51.518;9.864;2022-12-13T01:47:17;29.30;;;14.57;;
20709;SDS011;10516;51.518;9.864;2022-12-13T01:49:46;28.88;;;12.30;;
20709;SDS011;10516;51.518;9.864;2022-12-13T01:52:13;30.83;;;13.70;;
20709;SDS011;10516;51.518;9.864;2022-12-13T01:54:41;38.55;;;14.75;;
20709;SDS011;10516;51.518;9.864;2022-12-13T01:57:10;23.65;;;11.43;;
20709;SDS011;10516;51.518;9.864;2022-12-13T01:59:38;31.77;;;12.98;;
20709;SDS011;10516;51.518;9.864;2022-12-13T02:02:06;30.70;;;15.40;;
20709;SDS011;10516;51.518;9.864;2022-12-13T02:04:39;33.00;;;13.75;;
20709;SDS011;10516;51.518;9.864;2022-12-13T02:07:13;36.08;;;14.55;;
20709;SDS011;10516;51.518;9.864;2022-12-13T02:09:40;27.35;;;12.98;;
20709;SDS011;10516;51.518;9.864;2022-12-13T02:12:08;32.67;;;13.73;;
20709;SDS011;10516;51.518;9.864;2022-12-13T02:14:35;31.90;;;15.98;;
20709;SDS011;10516;51.518;9.864;2022-12-13T02:17:14;32.92;;;14.48;;
20709;SDS011;10516;51.518;9.864;2022-12-13T02:27:56;32.20;;;12.85;;
20709;SDS011;10516;51.518;9.864;2022-12-13T02:30:44;28.27;;;11.98;;
20709;SDS011;10516;51.518;9.864;2022-12-13T02:36:18;29.38;;;13.50;;
20709;SDS011;10516;51.518;9.864;2022-12-13T02:39:06;23.35;;;11.57;;
20709;SDS011;10516;51.518;9.864;2022-12-13T02:41:49;24.13;;;11.68;;
20709;SDS011;10516;51.518;9.864;2022-12-13T02:44:18;29.13;;;12.67;;
20709;SDS011;10516;51.518;9.864;2022-12-13T02:46:58;31.42;;;13.75;;
20709;SDS011;10516;51.518;9.864;2022-12-13T02:49:29;27.30;;;11.52;;
20709;SDS011;10516;51.518;9.864;2022-12-13T02:51:58;28.58;;;12.55;;
20709;SDS011;10516;51.518;9.864;2022-12-13T02:54:25;21.23;;;11.23;;
20709;SDS011;10516;51.518;9.864;2022-12-13T02:56:54;23.38;;;11.23;;
20709;SDS011;10516;51.518;9.864;2022-12-13T02:59:20;27.25;;;13.07;;
20709;SDS011;10516;51.518;9.864;2022-12-13T03:04:28;27.02;;;12.70;;
20709;SDS011;10516;51.518;9.864;2022-12-13T03:10:04;29.15;;;13.52;;
20709;SDS011;10516;51.518;9.864;2022-12-13T03:18:13;47.33;;;17.27;;
20709;SDS011;10516;51.518;9.864;2022-12-13T03:20:46;67.88;;;25.77;;
20709;SDS011;10516;51.518;9.864;2022-12-13T03:23:13;60.17;;;24.45;;
20709;SDS011;10516;51.518;9.864;2022-12-13T03:25:39;57.78;;;20.40;;
20709;SDS011;10516;51.518;9.864;2022-12-13T03:28:04;42.95;;;20.00;;
20709;SDS011;10516;51.518;9.864;2022-12-13T03:30:30;44.47;;;16.90;;
20709;SDS011;10516;51.518;9.864;2022-12-13T03:32:56;35.45;;;14.07;;
20709;SDS011;10516;51.518;9.864;2022-12-13T03:35:22;32.67;;;13.70;;
20709;SDS011;10516;51.518;9.864;2022-12-13T03:37:49;53.58;;;18.90;;
20709;SDS011;10516;51.518;9.864;2022-12-13T03:40:14;81.90;;;27.65;;
20709;SDS011;10516;51.518;9.864;2022-12-13T03:42:40;119.72;;;34.88;;
20709;SDS011;10516;51.518;9.864;2022-12-13T03:45:06;59.92;;;24.02;;
20709;SDS011;10516;51.518;9.864;2022-12-13T03:47:31;46.95;;;16.88;;
20709;SDS011;10516;51.518;9.864;2022-12-13T03:49:57;40.10;;;16.17;;
20709;SDS011;10516;51.518;9.864;2022-12-13T03:52:22;41.25;;;17.05;;
20709;SDS011;10516;51.518;9.864;2022-12-13T03:54:47;36.08;;;14.55;;
20709;SDS011;10516;51.518;9.864;2022-12-13T03:57:13;34.45;;;14.30;;
20709;SDS011;10516;51.518;9.864;2022-12-13T03:59:39;32.58;;;13.77;;
20709;SDS011;10516;51.518;9.864;2022-12-13T04:02:05;32.78;;;14.25;;
20709;SDS011;10516;51.518;9.864;2022-12-13T04:04:30;38.75;;;15.85;;
20709;SDS011;10516;51.518;9.864;2022-12-13T04:06:55;38.35;;;15.15;;
20709;SDS011;10516;51.518;9.864;2022-12-13T04:09:21;33.22;;;15.68;;
20709;SDS011;10516;51.518;9.864;2022-12-13T04:11:46;31.77;;;14.55;;
20709;SDS011;10516;51.518;9.864;2022-12-13T04:14:32;31.95;;;13.55;;
20709;SDS011;10516;51.518;9.864;2022-12-13T04:16:57;30.73;;;13.80;;
20709;SDS011;10516;51.518;9.864;2022-12-13T04:19:22;30.10;;;13.32;;
20709;SDS011;10516;51.518;9.864;2022-12-13T04:21:48;31.10;;;13.13;;
20709;SDS011;10516;51.518;9.864;2022-12-13T04:24:13;28.88;;;14.35;;
20709;SDS011;10516;51.518;9.864;2022-12-13T04:26:40;29.42;;;13.40;;
20709;SDS011;10516;51.518;9.864;2022-12-13T04:29:05;28.05;;;12.85;;
20709;SDS011;10516;51.518;9.864;2022-12-13T04:31:31;29.23;;;14.90;;
20709;SDS011;10516;51.518;9.864;2022-12-13T04:33:56;31.42;;;13.38;;
20709;SDS011;10516;51.518;9.864;2022-12-13T04:36:21;30.83;;;13.20;;
20709;SDS011;10516;51.518;9.864;2022-12-13T04:38:47;36.45;;;15.50;;
20709;SDS011;10516;51.518;9.864;2022-12-13T04:41:13;31.30;;;13.05;;
20709;SDS011;10516;51.518;9.864;2022-12-13T04:43:40;31.17;;;14.00;;
20709;SDS011;10516;51.518;9.864;2022-12-13T04:46:06;30.35;;;13.90;;
20709;SDS011;10516;51.518;9.864;2022-12-13T04:48:31;32.83;;;13.68;;
20709;SDS011;10516;51.518;9.864;2022-12-13T04:50:58;27.30;;;13.95;;
20709;SDS011;10516;51.518;9.864;2022-12-13T04:53:24;30.67;;;15.18;;
20709;SDS011;10516;51.518;9.864;2022-12-13T04:55:49;34.70;;;14.32;;
20709;SDS011;10516;51.518;9.864;2022-12-13T04:58:15;33.47;;;14.30;;
20709;SDS011;10516;51.518;9.864;2022-12-13T05:00:40;35.45;;;13.15;;
20709;SDS011;10516;51.518;9.864;2022-12-13T05:03:05;28.25;;;13.60;;
20709;SDS011;10516;51.518;9.864;2022-12-13T05:05:31;33.28;;;14.50;;
20709;SDS011;10516;51.518;9.864;2022-12-13T05:07:56;23.60;;;12.00;;
20709;SDS011;10516;51.518;9.864;2022-12-13T05:10:21;34.83;;;14.95;;
20709;SDS011;10516;51.518;9.864;2022-12-13T05:12:47;32.83;;;14.20;;
20709;SDS011;10516;51.518;9.864;2022-12-13T05:15:12;29.45;;;12.75;;
20709;SDS011;10516;51.518;9.864;2022-12-13T05:17:37;28.70;;;13.10;;
20709;SDS011;10516;51.518;9.864;2022-12-13T05:20:03;29.77;;;13.82;;
20709;SDS011;10516;51.518;9.864;2022-12-13T05:22:28;29.77;;;12.43;;
20709;SDS011;10516;51.518;9.864;2022-12-13T05:24:54;35.25;;;12.68;;
20709;SDS011;10516;51.518;9.864;2022-12-13T05:27:19;28.20;;;13.73;;
20709;SDS011;10516;51.518;9.864;2022-12-13T05:29:45;27.25;;;12.77;;
20709;SDS011;10516;51.518;9.864;2022-12-13T05:32:10;31.27;;;14.55;;
20709;SDS011;10516;51.518;9.864;2022-12-13T05:34:35;33.38;;;13.93;;
20709;SDS011;10516;51.518;9.864;2022-12-13T05:37:01;29.70;;;12.98;;
20709;SDS011;10516;51.518;9.864;2022-12-13T05:39:26;26.60;;;13.13;;
20709;SDS011;10516;51.518;9.864;2022-12-13T05:41:52;32.95;;;14.20;;
20709;SDS011;10516;51.518;9.864;2022-12-13T05:44:18;32.45;;;15.15;;
20709;SDS011;10516;51.518;9.864;2022-12-13T05:46:43;31.10;;;13.48;;
20709;SDS011;10516;51.518;9.864;2022-12-13T05:49:09;29.00;;;13.07;;
20709;SDS011;10516;51.518;9.864;2022-12-13T05:51:34;24.00;;;11.95;;
20709;SDS011;10516;51.518;9.864;2022-12-13T05:53:59;28.98;;;11.52;;
20709;SDS011;10516;51.518;9.864;2022-12-13T05:56:25;31.88;;;14.82;;
20709;SDS011;10516;51.518;9.864;2022-12-13T05:58:50;30.88;;;12.07;;
20709;SDS011;10516;51.518;9.864;2022-12-13T06:01:18;26.75;;;14.40;;
20709;SDS011;10516;51.518;9.864;2022-12-13T06:03:43;38.83;;;13.55;;
20709;SDS011;10516;51.518;9.864;2022-12-13T06:06:09;29.40;;;12.75;;
20709;SDS011;10516;51.518;9.864;2022-12-13T06:08:36;27.58;;;13.27;;
20709;SDS011;10516;51.518;9.864;2022-12-13T06:11:03;27.67;;;11.95;;
20709;SDS011;10516;51.518;9.864;2022-12-13T06:13:29;26.27;;;13.13;;
20709;SDS011;10516;51.518;9.864;2022-12-13T06:15:59;23.23;;;11.85;;
20709;SDS011;10516;51.518;9.864;2022-12-13T06:18:26;30.98;;;13.02;;
20709;SDS011;10516;51.518;9.864;2022-12-13T06:20:56;27.42;;;12.63;;
20709;SDS011;10516;51.518;9.864;2022-12-13T06:23:22;29.98;;;12.70;;
20709;SDS011;10516;51.518;9.864;2022-12-13T06:25:48;27.48;;;12.13;;
20709;SDS011;10516;51.518;9.864;2022-12-13T06:28:13;32.13;;;13.05;;
20709;SDS011;10516;51.518;9.864;2022-12-13T06:30:39;32.88;;;13.77;;
20709;SDS011;10516;51.518;9.864;2022-12-13T06:33:04;28.08;;;11.90;;
20709;SDS011;10516;51.518;9.864;2022-12-13T06:35:29;34.08;;;13.80;;
20709;SDS011;10516;51.518;9.864;2022-12-13T06:37:55;28.92;;;14.10;;
20709;SDS011;10516;51.518;9.864;2022-12-13T06:40:21;34.10;;;13.07;;
20709;SDS011;10516;51.518;9.864;2022-12-13T06:42:47;30.33;;;13.00;;
20709;SDS011;10516;51.518;9.864;2022-12-13T06:45:12;29.50;;;14.80;;
20709;SDS011;10516;51.518;9.864;2022-12-13T06:47:37;29.08;;;13.57;;
20709;SDS011;10516;51.518;9.864;2022-12-13T06:50:03;32.63;;;15.63;;
20709;SDS011;10516;51.518;9.864;2022-12-13T06:52:29;37.80;;;17.35;;
20709;SDS011;10516;51.518;9.864;2022-12-13T06:54:54;44.25;;;19.48;;
20709;SDS011;10516;51.518;9.864;2022-12-13T06:57:20;36.85;;;18.95;;
20709;SDS011;10516;51.518;9.864;2022-12-13T06:59:45;39.70;;;18.65;;
20709;SDS011;10516;51.518;9.864;2022-12-13T07:02:11;44.58;;;18.23;;
20709;SDS011;10516;51.518;9.864;2022-12-13T07:04:36;38.92;;;16.67;;
20709;SDS011;10516;51.518;9.864;2022-12-13T07:07:02;36.63;;;17.02;;
20709;SDS011;10516;51.518;9.864;2022-12-13T07:09:28;36.05;;;15.90;;
20709;SDS011;10516;51.518;9.864;2022-12-13T07:11:54;35.70;;;14.80;;
20709;SDS011;10516;51.518;9.864;2022-12-13T07:14:20;31.65;;;12.98;;
20709;SDS011;10516;51.518;9.864;2022-12-13T07:16:45;39.30;;;15.55;;
20709;SDS011;10516;51.518;9.864;2022-12-13T07:19:11;33.58;;;15.38;;
20709;SDS011;10516;51.518;9.864;2022-12-13T07:21:36;39.03;;;15.25;;
20709;SDS011;10516;51.518;9.864;2022-12-13T07:24:03;38.92;;;14.07;;
20709;SDS011;10516;51.518;9.864;2022-12-13T07:26:29;30.50;;;12.68;;
20709;SDS011;10516;51.518;9.864;2022-12-13T07:28:55;32.30;;;14.88;;
20709;SDS011;10516;51.518;9.864;2022-12-13T07:31:21;42.05;;;19.77;;
20709;SDS011;10516;51.518;9.864;2022-12-13T07:33:48;43.03;;;17.20;;
20709;SDS011;10516;51.518;9.864;2022-12-13T07:36:14;42.55;;;19.85;;
20709;SDS011;10516;51.518;9.864;2022-12-13T07:38:42;51.42;;;23.17;;
20709;SDS011;10516;51.518;9.864;2022-12-13T07:41:08;47.55;;;20.67;;
20709;SDS011;10516;51.518;9.864;2022-12-13T07:43:33;38.78;;;16.60;;
20709;SDS011;10516;51.518;9.864;2022-12-13T07:46:00;36.22;;;15.55;;
20709;SDS011;10516;51.518;9.864;2022-12-13T07:48:27;30.08;;;14.80;;
20709;SDS011;10516;51.518;9.864;2022-12-13T07:50:53;43.08;;;18.17;;
20709;SDS011;10516;51.518;9.864;2022-12-13T07:53:24;34.85;;;15.88;;
20709;SDS011;10516;51.518;9.864;2022-12-13T07:55:49;36.28;;;17.15;;
20709;SDS011;10516;51.518;9.864;2022-12-13T07:58:14;31.33;;;15.38;;
20709;SDS011;10516;51.518;9.864;2022-12-13T08:00:41;44.45;;;18.95;;
20709;SDS011;10516;51.518;9.864;2022-12-13T08:03:07;61.85;;;27.65;;
20709;SDS011;10516;51.518;9.864;2022-12-13T08:05:33;63.63;;;30.35;;
20709;SDS011;10516;51.518;9.864;2022-12-13T08:08:01;44.97;;;19.73;;
20709;SDS011;10516;51.518;9.864;2022-12-13T08:10:27;42.75;;;18.48;;
20709;SDS011;10516;51.518;9.864;2022-12-13T08:12:53;40.50;;;16.92;;
20709;SDS011;10516;51.518;9.864;2022-12-13T08:15:19;47.63;;;22.35;;
20709;SDS011;10516;51.518;9.864;2022-12-13T08:17:45;67.43;;;28.42;;
20709;SDS011;10516;51.518;9.864;2022-12-13T08:20:11;45.15;;;19.50;;
20709;SDS011;10516;51.518;9.864;2022-12-13T08:22:36;43.30;;;17.02;;
20709;SDS011;10516;51.518;9.864;2022-12-13T08:25:02;32.13;;;14.70;;
20709;SDS011;10516;51.518;9.864;2022-12-13T08:27:28;37.03;;;15.32;;
20709;SDS011;10516;51.518;9.864;2022-12-13T08:29:53;39.67;;;15.73;;
20709;SDS011;10516;51.518;9.864;2022-12-13T08:32:18;38.88;;;15.52;;
20709;SDS011;10516;51.518;9.864;2022-12-13T08:34:44;40.75;;;16.77;;
20709;SDS011;10516;51.518;9.864;2022-12-13T08:37:09;30.55;;;15.23;;
20709;SDS011;10516;51.518;9.864;2022-12-13T08:39:36;40.05;;;16.45;;
20709;SDS011;10516;51.518;9.864;2022-12-13T08:42:03;39.83;;;18.55;;
20709;SDS011;10516;51.518;9.864;2022-12-13T08:44:30;42.65;;;18.98;;
20709;SDS011;10516;51.518;9.864;2022-12-13T08:46:55;41.28;;;17.90;;
20709;SDS011;10516;51.518;9.864;2022-12-13T08:49:21;40.25;;;16.98;;
20709;SDS011;10516;51.518;9.864;2022-12-13T08:51:46;40.17;;;17.15;;
20709;SDS011;10516;51.518;9.864;2022-12-13T08:54:11;44.85;;;21.63;;
20709;SDS011;10516;51.518;9.864;2022-12-13T08:56:37;40.67;;;17.08;;
20709;SDS011;10516;51.518;9.864;2022-12-13T08:59:02;44.22;;;21.55;;
20709;SDS011;10516;51.518;9.864;2022-12-13T09:01:28;43.45;;;20.35;;
20709;SDS011;10516;51.518;9.864;2022-12-13T09:03:54;58.45;;;23.90;;
20709;SDS011;10516;51.518;9.864;2022-12-13T09:06:19;58.65;;;23.30;;
20709;SDS011;10516;51.518;9.864;2022-12-13T09:08:45;55.88;;;23.95;;
20709;SDS011;10516;51.518;9.864;2022-12-13T09:11:10;54.53;;;24.67;;
20709;SDS011;10516;51.518;9.864;2022-12-13T09:13:36;61.55;;;22.08;;
20709;SDS011;10516;51.518;9.864;2022-12-13T09:16:13;57.65;;;21.73;;
20709;SDS011;10516;51.518;9.864;2022-12-13T09:18:40;49.45;;;22.05;;
20709;SDS011;10516;51.518;9.864;2022-12-13T09:21:10;45.60;;;19.25;;
20709;SDS011;10516;51.518;9.864;2022-12-13T09:23:36;52.40;;;20.30;;
20709;SDS011;10516;51.518;9.864;2022-12-13T09:26:02;50.88;;;21.30;;
20709;SDS011;10516;51.518;9.864;2022-12-13T09:28:28;54.05;;;21.35;;
20709;SDS011;10516;51.518;9.864;2022-12-13T09:30:54;49.03;;;20.20;;
20709;SDS011;10516;51.518;9.864;2022-12-13T09:33:20;46.40;;;19.67;;
20709;SDS011;10516;51.518;9.864;2022-12-13T09:35:45;51.45;;;21.42;;
20709;SDS011;10516;51.518;9.864;2022-12-13T09:38:11;55.20;;;23.10;;
20709;SDS011;10516;51.518;9.864;2022-12-13T09:40:37;62.22;;;24.13;;
20709;SDS011;10516;51.518;9.864;2022-12-13T09:43:04;50.10;;;21.17;;
20709;SDS011;10516;51.518;9.864;2022-12-13T09:45:30;56.45;;;21.67;;
20709;SDS011;10516;51.518;9.864;2022-12-13T09:47:57;63.45;;;22.27;;
20709;SDS011;10516;51.518;9.864;2022-12-13T09:50:33;53.80;;;23.38;;
20709;SDS011;10516;51.518;9.864;2022-12-13T09:53:00;50.60;;;22.83;;
20709;SDS011;10516;51.518;9.864;2022-12-13T09:55:47;52.83;;;21.80;;
20709;SDS011;10516;51.518;9.864;2022-12-13T09:58:22;46.95;;;20.70;;
20709;SDS011;10516;51.518;9.864;2022-12-13T10:00:52;46.58;;;20.98;;
20709;SDS011;10516;51.518;9.864;2022-12-13T10:03:20;51.10;;;19.95;;
20709;SDS011;10516;51.518;9.864;2022-12-13T10:05:52;46.25;;;21.20;;
20709;SDS011;10516;51.518;9.864;2022-12-13T10:08:20;42.78;;;20.88;;
20709;SDS011;10516;51.518;9.864;2022-12-13T10:10:48;49.88;;;20.92;;
20709;SDS011;10516;51.518;9.864;2022-12-13T10:16:02;52.13;;;22.65;;
20709;SDS011;10516;51.518;9.864;2022-12-13T10:18:33;49.97;;;21.48;;
20709;SDS011;10516;51.518;9.864;2022-12-13T10:21:02;52.10;;;22.10;;
20709;SDS011;10516;51.518;9.864;2022-12-13T10:23:31;54.30;;;23.10;;
20709;SDS011;10516;51.518;9.864;2022-12-13T10:25:57;51.40;;;21.60;;
20709;SDS011;10516;51.518;9.864;2022-12-13T10:28:27;37.28;;;19.15;;
20709;SDS011;10516;51.518;9.864;2022-12-13T10:30:55;47.25;;;21.70;;
20709;SDS011;10516;51.518;9.864;2022-12-13T10:36:02;48.58;;;20.33;;
20709;SDS011;10516;51.518;9.864;2022-12-13T10:38:30;48.13;;;21.27;;
20709;SDS011;10516;51.518;9.864;2022-12-13T10:40:59;41.95;;;19.13;;
20709;SDS011;10516;51.518;9.864;2022-12-13T10:43:25;37.15;;;19.27;;
20709;SDS011;10516;51.518;9.864;2022-12-13T10:49:11;57.45;;;22.80;;
20709;SDS011;10516;51.518;9.864;2022-12-13T10:51:13;46.85;;;21.50;;
20709;SDS011;10516;51.518;9.864;2022-12-13T10:56:12;53.88;;;21.05;;
20709;SDS011;10516;51.518;9.864;2022-12-13T10:58:39;44.97;;;20.25;;
20709;SDS011;10516;51.518;9.864;2022-12-13T11:01:07;53.05;;;20.15;;
20709;SDS011;10516;51.518;9.864;2022-12-13T11:03:33;44.65;;;21.50;;
20709;SDS011;10516;51.518;9.864;2022-12-13T11:06:06;41.55;;;19.20;;
20709;SDS011;10516;51.518;9.864;2022-12-13T11:08:37;51.83;;;22.10;;
20709;SDS011;10516;51.518;9.864;2022-12-13T11:11:04;43.97;;;21.40;;
20709;SDS011;10516;51.518;9.864;2022-12-13T11:13:40;49.42;;;21.90;;
20709;SDS011;10516;51.518;9.864;2022-12-13T11:16:15;46.55;;;22.80;;
20709;SDS011;10516;51.518;9.864;2022-12-13T11:18:52;47.55;;;22.35;;
20709;SDS011;10516;51.518;9.864;2022-12-13T11:21:27;55.72;;;23.00;;
20709;SDS011;10516;51.518;9.864;2022-12-13T11:26:22;42.38;;;20.75;;
20709;SDS011;10516;51.518;9.864;2022-12-13T11:28:59;43.38;;;21.48;;
20709;SDS011;10516;51.518;9.864;2022-12-13T11:37:07;41.90;;;19.67;;
20709;SDS011;10516;51.518;9.864;2022-12-13T11:40:16;45.78;;;21.40;;
20709;SDS011;10516;51.518;9.864;2022-12-13T11:47:45;52.25;;;22.77;;
20709;SDS011;10516;51.518;9.864;2022-12-13T11:50:16;46.08;;;21.33;;
20709;SDS011;10516;51.518;9.864;2022-12-13T11:52:51;46.45;;;21.42;;
20709;SDS011;10516;51.518;9.864;2022-12-13T11:57:46;48.67;;;21.52;;
20709;SDS011;10516;51.518;9.864;2022-12-13T12:03:30;57.28;;;24.77;;
20709;SDS011;10516;51.518;9.864;2022-12-13T12:06:23;53.78;;;22.92;;
20709;SDS011;10516;51.518;9.864;2022-12-13T12:09:14;48.17;;;21.87;;
20709;SDS011;10516;51.518;9.864;2022-12-13T12:12:00;49.90;;;22.08;;
20709;SDS011;10516;51.518;9.864;2022-12-13T12:14:48;42.25;;;19.95;;
20709;SDS011;10516;51.518;9.864;2022-12-13T12:17:21;45.22;;;21.38;;
20709;SDS011;10516;51.518;9.864;2022-12-13T12:19:49;42.30;;;19.95;;
20709;SDS011;10516;51.518;9.864;2022-12-13T12:27:36;46.88;;;21.52;;
20709;SDS011;10516;51.518;9.864;2022-12-13T12:30:14;49.38;;;22.90;;
20709;SDS011;10516;51.518;9.864;2022-12-13T12:41:12;57.60;;;24.88;;
20709;SDS011;10516;51.518;9.864;2022-12-13T12:43:41;50.78;;;23.20;;
20709;SDS011;10516;51.518;9.864;2022-12-13T12:48:55;55.45;;;24.45;;
20709;SDS011;10516;51.518;9.864;2022-12-13T13:02:35;53.45;;;24.65;;
20709;SDS011;10516;51.518;9.864;2022-12-13T13:05:08;47.88;;;22.83;;
20709;SDS011;10516;51.518;9.864;2022-12-13T13:07:45;50.65;;;22.35;;
20709;SDS011;10516;51.518;9.864;2022-12-13T13:10:17;55.50;;;23.92;;
20709;SDS011;10516;51.518;9.864;2022-12-13T13:12:43;45.55;;;23.15;;
20709;SDS011;10516;51.518;9.864;2022-12-13T13:17:57;48.55;;;21.83;;
20709;SDS011;10516;51.518;9.864;2022-12-13T13:20:23;51.20;;;23.08;;
20709;SDS011;10516;51.518;9.864;2022-12-13T13:22:56;44.58;;;22.10;;
20709;SDS011;10516;51.518;9.864;2022-12-13T13:27:51;47.78;;;23.83;;
20709;SDS011;10516;51.518;9.864;2022-12-13T13:30:25;44.42;;;22.17;;
20709;SDS011;10516;51.518;9.864;2022-12-13T13:32:52;46.22;;;24.08;;
20709;SDS011;10516;51.518;9.864;2022-12-13T13:38:03;49.33;;;22.90;;
20709;SDS011;10516;51.518;9.864;2022-12-13T13:40:49;41.33;;;20.85;;
20709;SDS011;10516;51.518;9.864;2022-12-13T13:43:15;45.67;;;22.77;;
20709;SDS011;10516;51.518;9.864;2022-12-13T13:45:58;46.38;;;23.33;;
20709;SDS011;10516;51.518;9.864;2022-12-13T14:13:34;49.15;;;24.48;;
20709;SDS011;10516;51.518;9.864;2022-12-13T14:22:01;51.67;;;25.52;;
20709;SDS011;10516;51.518;9.864;2022-12-13T14:24:44;56.33;;;27.10;;
20709;SDS011;10516;51.518;9.864;2022-12-13T14:30:13;59.22;;;27.92;;
20709;SDS011;10516;51.518;9.864;2022-12-13T14:32:39;56.42;;;28.92;;
20709;SDS011;10516;51.518;9.864;2022-12-13T14:35:06;63.55;;;28.80;;
20709;SDS011;10516;51.518;9.864;2022-12-13T14:37:32;56.85;;;27.80;;
20709;SDS011;10516;51.518;9.864;2022-12-13T14:40:02;53.22;;;26.45;;
20709;SDS011;10516;51.518;9.864;2022-12-13T14:42:52;60.38;;;26.85;;
20709;SDS011;10516;51.518;9.864;2022-12-13T14:45:22;57.25;;;25.88;;
20709;SDS011;10516;51.518;9.864;2022-12-13T14:47:52;51.85;;;27.83;;
20709;SDS011;10516;51.518;9.864;2022-12-13T14:50:18;55.63;;;25.55;;
20709;SDS011;10516;51.518;9.864;2022-12-13T14:52:45;53.40;;;25.15;;
20709;SDS011;10516;51.518;9.864;2022-12-13T14:55:32;48.78;;;26.23;;
20709;SDS011;10516;51.518;9.864;2022-12-13T14:58:01;51.00;;;24.27;;
20709;SDS011;10516;51.518;9.864;2022-12-13T15:00:37;47.17;;;22.13;;
20709;SDS011;10516;51.518;9.864;2022-12-13T15:03:04;45.85;;;21.65;;
20709;SDS011;10516;51.518;9.864;2022-12-13T15:05:39;41.22;;;21.65;;
20709;SDS011;10516;51.518;9.864;2022-12-13T15:08:10;43.28;;;21.65;;
20709;SDS011;10516;51.518;9.864;2022-12-13T15:10:41;45.92;;;23.50;;
20709;SDS011;10516;51.518;9.864;2022-12-13T15:15:59;45.42;;;21.40;;
20709;SDS011;10516;51.518;9.864;2022-12-13T15:18:27;42.55;;;22.02;;
20709;SDS011;10516;51.518;9.864;2022-12-13T15:20:54;53.00;;;21.80;;
20709;SDS011;10516;51.518;9.864;2022-12-13T15:23:22;45.38;;;21.15;;
20709;SDS011;10516;51.518;9.864;2022-12-13T15:28:27;82.13;;;34.47;;
20709;SDS011;10516;51.518;9.864;2022-12-13T15:30:57;78.07;;;32.55;;
20709;SDS011;10516;51.518;9.864;2022-12-13T15:33:24;59.60;;;28.20;;
20709;SDS011;10516;51.518;9.864;2022-12-13T15:38:47;47.42;;;26.67;;
20709;SDS011;10516;51.518;9.864;2022-12-13T15:41:33;48.95;;;22.67;;
20709;SDS011;10516;51.518;9.864;2022-12-13T15:44:43;51.80;;;23.20;;
20709;SDS011;10516;51.518;9.864;2022-12-13T15:46:51;48.53;;;21.75;;
20709;SDS011;10516;51.518;9.864;2022-12-13T15:49:29;47.40;;;22.50;;
20709;SDS011;10516;51.518;9.864;2022-12-13T15:52:04;41.17;;;22.23;;
20709;SDS011;10516;51.518;9.864;2022-12-13T15:57:49;48.22;;;22.55;;
20709;SDS011;10516;51.518;9.864;2022-12-13T16:07:53;45.10;;;22.27;;
20709;SDS011;10516;51.518;9.864;2022-12-13T16:10:20;54.03;;;23.05;;
20709;SDS011;10516;51.518;9.864;2022-12-13T16:13:47;50.30;;;21.52;;
20709;SDS011;10516;51.518;9.864;2022-12-13T16:15:48;49.15;;;22.63;;
20709;SDS011;10516;51.518;9.864;2022-12-13T16:18:24;56.58;;;22.52;;
20709;SDS011;10516;51.518;9.864;2022-12-13T16:20:54;55.40;;;23.48;;
20709;SDS011;10516;51.518;9.864;2022-12-13T16:23:21;46.75;;;21.00;;
20709;SDS011;10516;51.518;9.864;2022-12-13T16:25:46;52.40;;;22.92;;
20709;SDS011;10516;51.518;9.864;2022-12-13T16:28:12;49.03;;;22.58;;
20709;SDS011;10516;51.518;9.864;2022-12-13T16:30:52;52.50;;;21.98;;
20709;SDS011;10516;51.518;9.864;2022-12-13T16:33:25;42.70;;;23.33;;
20709;SDS011;10516;51.518;9.864;2022-12-13T16:35:52;44.53;;;22.50;;
20709;SDS011;10516;51.518;9.864;2022-12-13T16:38:18;48.13;;;21.92;;
20709;SDS011;10516;51.518;9.864;2022-12-13T16:40:43;43.05;;;22.00;;
20709;SDS011;10516;51.518;9.864;2022-12-13T16:43:15;42.13;;;23.45;;
20709;SDS011;10516;51.518;9.864;2022-12-13T16:45:43;50.63;;;22.75;;
20709;SDS011;10516;51.518;9.864;2022-12-13T16:48:12;46.58;;;21.17;;
20709;SDS011;10516;51.518;9.864;2022-12-13T16:50:41;46.30;;;20.00;;
20709;SDS011;10516;51.518;9.864;2022-12-13T16:53:09;45.28;;;22.52;;